createdAt,value
2019-01-09T00:01:15.021Z,21.00
2019-01-09T00:03:41.000Z,20.98
2019-01-09T00:06:06.980Z,20.99
2019-01-09T00:08:33.015Z,20.98
2019-01-09T00:10:59.044Z,20.98
2019-01-09T00:13:25.074Z,20.98
2019-01-09T00:15:51.036Z,20.98
2019-01-09T00:18:17.075Z,20.98
2019-01-09T00:20:43.079Z,20.98
2019-01-09T00:23:09.039Z,20.97
2019-01-09T00:25:35.063Z,20.96
2019-01-09T00:28:01.037Z,20.97
2019-01-09T00:30:27.021Z,20.95
2019-01-09T00:32:53.047Z,20.97
2019-01-09T00:35:19.045Z,20.95
2019-01-09T00:37:45.038Z,20.96
2019-01-09T00:40:11.062Z,20.95
2019-01-09T00:42:37.038Z,20.94
2019-01-09T00:45:03.051Z,20.95
2019-01-09T00:47:29.088Z,20.94
2019-01-09T00:49:55.038Z,20.92
2019-01-09T00:52:21.010Z,20.93
2019-01-09T00:54:47.035Z,20.95
2019-01-09T00:57:13.004Z,20.94
2019-01-09T00:59:38.988Z,20.94
2019-01-09T01:02:05.024Z,20.94
2019-01-09T01:04:30.992Z,20.94
2019-01-09T01:06:57.015Z,20.94
2019-01-09T01:09:22.998Z,20.94
2019-01-09T01:11:48.964Z,20.94
2019-01-09T01:14:14.982Z,20.93
2019-01-09T01:16:40.973Z,20.93
2019-01-09T01:19:06.940Z,20.93
2019-01-09T01:21:32.961Z,20.92
2019-01-09T01:23:58.946Z,20.95
2019-01-09T01:26:24.939Z,20.94
2019-01-09T01:28:50.958Z,20.93
2019-01-09T01:31:16.993Z,20.93
2019-01-09T01:33:42.960Z,20.92
2019-01-09T01:36:08.964Z,20.94
2019-01-09T01:38:34.966Z,20.92
2019-01-09T01:41:00.956Z,20.92
2019-01-09T01:43:26.996Z,20.93
2019-01-09T01:45:52.974Z,20.91
2019-01-09T01:48:18.977Z,20.94
2019-01-09T01:50:44.987Z,20.93
2019-01-09T01:53:10.988Z,20.93
2019-01-09T01:55:36.958Z,20.92
2019-01-09T01:58:02.993Z,20.91
2019-01-09T02:00:28.956Z,20.91
2019-01-09T02:02:54.961Z,20.91
2019-01-09T02:05:20.998Z,20.91
2019-01-09T02:07:47.007Z,20.91
2019-01-09T02:10:13.049Z,20.90
2019-01-09T02:12:39.032Z,20.90
2019-01-09T02:15:05.010Z,20.90
2019-01-09T02:17:31.033Z,20.90
2019-01-09T02:19:56.991Z,20.90
2019-01-09T02:22:22.980Z,20.91
2019-01-09T02:24:48.996Z,20.92
2019-01-09T02:27:15.002Z,20.89
2019-01-09T02:29:40.975Z,20.90
2019-01-09T02:32:07.028Z,20.92
2019-01-09T02:34:33.017Z,20.92
2019-01-09T02:36:59.037Z,20.92
2019-01-09T02:39:25.072Z,20.92
2019-01-09T02:41:51.062Z,20.90
2019-01-09T02:44:17.048Z,20.92
2019-01-09T02:46:43.072Z,20.90
2019-01-09T02:49:09.050Z,20.92
2019-01-09T02:51:35.024Z,20.93
2019-01-09T02:54:01.065Z,20.92
2019-01-09T02:56:27.103Z,20.92
2019-01-09T02:58:53.108Z,20.94
2019-01-09T03:01:19.109Z,20.91
2019-01-09T03:03:45.101Z,20.92
2019-01-09T03:06:11.091Z,20.93
2019-01-09T03:08:37.114Z,20.90
2019-01-09T03:11:03.115Z,20.93
2019-01-09T03:13:29.116Z,20.92
2019-01-09T03:15:55.143Z,20.91
2019-01-09T03:18:21.101Z,20.92
2019-01-09T03:20:47.085Z,20.91
2019-01-09T03:23:13.103Z,20.91
2019-01-09T03:25:39.128Z,20.92
2019-01-09T03:28:05.091Z,20.91
2019-01-09T03:30:31.069Z,20.93
2019-01-09T03:32:57.082Z,20.92
2019-01-09T03:35:23.066Z,20.91
2019-01-09T03:37:49.064Z,20.89
2019-01-09T03:40:15.087Z,20.90
2019-01-09T03:42:41.052Z,20.93
2019-01-09T03:45:07.027Z,20.94
2019-01-09T03:47:33.045Z,20.91
2019-01-09T03:49:59.071Z,20.91
2019-01-09T03:52:25.048Z,20.92
2019-01-09T03:54:51.023Z,20.92
2019-01-09T03:57:17.062Z,20.90
2019-01-09T03:59:43.055Z,20.90
2019-01-09T04:02:09.043Z,20.90
2019-01-09T04:04:35.039Z,20.92
2019-01-09T04:07:01.034Z,20.91
2019-01-09T04:09:27.046Z,20.92
2019-01-09T04:11:53.064Z,20.91
2019-01-09T04:14:19.041Z,20.91
2019-01-09T04:16:45.047Z,20.90
2019-01-09T04:19:11.077Z,20.90
2019-01-09T04:21:37.074Z,20.91
2019-01-09T04:24:03.103Z,20.91
2019-01-09T04:26:29.078Z,20.92
2019-01-09T04:28:55.091Z,20.89
2019-01-09T04:31:21.133Z,20.93
2019-01-09T04:33:47.112Z,20.91
2019-01-09T04:36:13.093Z,20.91
2019-01-09T04:38:39.138Z,20.91
2019-01-09T04:41:05.124Z,20.93
2019-01-09T04:43:31.124Z,20.91
2019-01-09T04:45:57.212Z,20.90
2019-01-09T04:48:23.197Z,20.91
2019-01-09T04:50:49.179Z,20.91
2019-01-09T04:53:15.198Z,20.90
2019-01-09T04:55:41.163Z,20.90
2019-01-09T04:58:07.184Z,20.90
2019-01-09T05:00:33.169Z,20.89
2019-01-09T05:02:59.160Z,20.89
2019-01-09T05:05:25.193Z,20.88
2019-01-09T05:07:51.179Z,20.89
2019-01-09T05:10:17.208Z,20.88
2019-01-09T05:12:43.159Z,20.89
2019-01-09T05:15:09.201Z,20.89
2019-01-09T05:17:35.182Z,20.89
2019-01-09T05:20:01.166Z,20.88
2019-01-09T05:22:27.286Z,20.87
2019-01-09T05:24:53.248Z,20.87
2019-01-09T05:27:19.261Z,20.89
2019-01-09T05:29:45.236Z,20.87
2019-01-09T05:32:11.225Z,20.88
2019-01-09T05:34:37.262Z,20.85
2019-01-09T05:37:09.443Z,20.87
2019-01-09T05:39:29.479Z,20.86
2019-01-09T05:41:55.893Z,20.86
2019-01-09T05:44:21.856Z,20.85
2019-01-09T05:46:47.872Z,20.84
2019-01-09T05:49:13.927Z,20.82
2019-01-09T05:51:39.899Z,20.81
2019-01-09T05:54:05.883Z,20.79
2019-01-09T05:56:31.902Z,20.79
2019-01-09T05:58:57.899Z,20.79
2019-01-09T06:01:23.870Z,20.80
2019-01-09T06:03:49.897Z,20.79
2019-01-09T06:06:15.875Z,20.79
2019-01-09T06:08:41.882Z,20.79
2019-01-09T06:11:07.871Z,20.79
2019-01-09T06:13:33.858Z,20.79
2019-01-09T06:15:59.848Z,20.78
2019-01-09T06:18:25.879Z,20.78
2019-01-09T06:20:51.853Z,20.77
2019-01-09T06:23:17.831Z,20.77
2019-01-09T06:25:43.859Z,20.77
2019-01-09T06:28:09.846Z,20.76
2019-01-09T06:30:35.816Z,20.76
2019-01-09T06:33:01.872Z,20.75
2019-01-09T06:35:27.868Z,20.74
2019-01-09T06:37:53.872Z,20.75
2019-01-09T06:40:19.912Z,20.75
2019-01-09T06:42:45.901Z,20.74
2019-01-09T06:45:11.875Z,20.73
2019-01-09T06:47:37.907Z,20.74
2019-01-09T06:50:03.908Z,20.75
2019-01-09T06:52:29.982Z,20.75
2019-01-09T06:54:56.066Z,20.74
2019-01-09T06:57:22.028Z,20.74
2019-01-09T06:59:48.010Z,20.74
2019-01-09T07:02:14.025Z,20.74
2019-01-09T07:04:40.009Z,20.74
2019-01-09T07:07:06.026Z,20.75
2019-01-09T07:09:32.056Z,20.74
2019-01-09T07:11:58.034Z,20.75
2019-01-09T07:14:24.043Z,20.78
2019-01-09T07:16:50.051Z,20.76
2019-01-09T07:19:16.036Z,20.77
2019-01-09T07:21:45.587Z,20.78
2019-01-09T07:24:08.047Z,20.79
2019-01-09T07:26:34.033Z,20.83
2019-01-09T07:29:00.034Z,20.80
2019-01-09T07:31:26.088Z,20.80
2019-01-09T07:33:52.073Z,20.79
2019-01-09T07:36:18.065Z,20.79
2019-01-09T07:38:44.107Z,20.80
2019-01-09T07:41:10.075Z,20.80
2019-01-09T07:43:36.075Z,20.81
2019-01-09T07:46:02.112Z,20.82
2019-01-09T07:48:28.098Z,20.82
2019-01-09T07:50:54.134Z,20.82
2019-01-09T07:53:20.931Z,20.81
2019-01-09T07:55:46.928Z,20.84
2019-01-09T07:58:12.908Z,20.83
2019-01-09T08:00:38.961Z,20.94
2019-01-09T08:03:04.937Z,20.92
2019-01-09T08:05:30.912Z,20.90
2019-01-09T08:07:56.971Z,20.92
2019-01-09T08:10:22.964Z,20.93
2019-01-09T08:12:49.007Z,20.97
2019-01-09T08:15:15.012Z,21.02
2019-01-09T08:17:40.962Z,21.00
2019-01-09T08:20:06.950Z,21.00
2019-01-09T08:22:33.141Z,21.00
2019-01-09T08:24:59.144Z,21.01
2019-01-09T08:27:25.126Z,21.06
2019-01-09T08:29:51.140Z,21.09
2019-01-09T08:32:17.180Z,21.11
2019-01-09T08:34:43.254Z,21.19
2019-01-09T08:37:09.254Z,21.09
2019-01-09T08:39:35.306Z,21.03
2019-01-09T08:42:01.212Z,21.02
2019-01-09T08:44:27.583Z,21.00
2019-01-09T08:46:53.621Z,20.98
2019-01-09T08:49:19.568Z,20.99
2019-01-09T08:51:45.587Z,20.97
2019-01-09T08:54:11.851Z,20.96
2019-01-09T08:56:37.807Z,20.96
2019-01-09T08:59:04.327Z,20.96
2019-01-09T09:01:30.305Z,20.94
2019-01-09T09:03:56.346Z,20.93
2019-01-09T09:06:22.376Z,20.93
2019-01-09T09:08:48.380Z,20.92
2019-01-09T09:11:14.351Z,20.93
2019-01-09T09:13:40.402Z,20.94
2019-01-09T09:16:06.473Z,20.97
2019-01-09T09:18:32.716Z,20.94
2019-01-09T09:20:58.849Z,20.93
2019-01-09T09:23:24.995Z,20.90
2019-01-09T09:25:50.985Z,20.90
2019-01-09T09:28:17.016Z,20.87
2019-01-09T09:30:43.010Z,20.86
2019-01-09T09:33:08.996Z,20.86
2019-01-09T09:35:34.966Z,20.86
2019-01-09T09:38:01.047Z,20.86
2019-01-09T09:40:27.027Z,20.86
2019-01-09T09:42:53.063Z,20.85
2019-01-09T09:45:19.071Z,20.86
2019-01-09T09:47:45.067Z,20.86
2019-01-09T09:50:11.210Z,20.86
2019-01-09T09:52:37.265Z,20.85
2019-01-09T09:55:03.260Z,20.86
2019-01-09T09:57:29.242Z,20.87
2019-01-09T09:59:55.248Z,20.86
2019-01-09T10:02:21.221Z,20.85
2019-01-09T10:04:47.207Z,20.86
2019-01-09T10:07:13.260Z,20.86
2019-01-09T10:09:39.343Z,20.84
2019-01-09T10:12:05.222Z,20.84
2019-01-09T10:14:31.365Z,20.83
2019-01-09T10:16:57.350Z,20.83
2019-01-09T10:19:23.323Z,20.83
2019-01-09T10:21:49.404Z,20.82
2019-01-09T10:24:15.368Z,20.81
2019-01-09T10:26:41.376Z,20.81
2019-01-09T10:29:08.002Z,20.82
2019-01-09T10:31:33.972Z,20.81
2019-01-09T10:33:59.974Z,20.80
2019-01-09T10:36:26.022Z,20.80
2019-01-09T10:38:52.011Z,20.80
2019-01-09T10:41:17.992Z,20.80
2019-01-09T10:43:44.037Z,20.80
2019-01-09T10:46:10.019Z,20.80
2019-01-09T10:48:35.993Z,20.79
2019-01-09T10:51:02.023Z,20.78
2019-01-09T10:53:28.029Z,20.78
2019-01-09T10:55:54.019Z,20.78
2019-01-09T10:58:20.044Z,20.78
2019-01-09T11:00:46.034Z,20.77
2019-01-09T11:03:12.020Z,20.77
2019-01-09T11:05:38.100Z,20.76
2019-01-09T11:08:04.069Z,20.77
2019-01-09T11:10:30.059Z,20.76
2019-01-09T11:12:56.098Z,20.76
2019-01-09T11:15:22.082Z,20.76
2019-01-09T11:17:48.067Z,20.75
2019-01-09T11:20:14.075Z,20.75
2019-01-09T11:22:40.073Z,20.75
2019-01-09T11:25:06.045Z,20.74
2019-01-09T11:27:32.086Z,20.74
2019-01-09T11:29:58.057Z,20.74
2019-01-09T11:32:24.041Z,20.74
2019-01-09T11:34:50.052Z,20.75
2019-01-09T11:37:16.036Z,20.75
2019-01-09T11:39:42.023Z,20.73
2019-01-09T11:42:08.068Z,20.74
2019-01-09T11:44:34.034Z,20.73
2019-01-09T11:47:00.022Z,20.72
2019-01-09T11:49:26.073Z,20.72
2019-01-09T11:51:52.070Z,20.73
2019-01-09T11:54:18.056Z,20.73
2019-01-09T11:56:44.084Z,20.72
2019-01-09T11:59:10.057Z,20.71
2019-01-09T12:01:36.043Z,20.71
2019-01-09T12:04:02.061Z,20.71
2019-01-09T12:06:28.087Z,20.71
2019-01-09T12:08:54.092Z,20.71
2019-01-09T12:11:20.097Z,20.71
2019-01-09T12:13:46.088Z,20.71
2019-01-09T12:16:12.052Z,20.70
2019-01-09T12:18:38.091Z,20.70
2019-01-09T12:21:04.089Z,20.70
2019-01-09T12:23:30.091Z,20.71
2019-01-09T12:25:56.127Z,20.69
2019-01-09T12:28:22.103Z,20.70
2019-01-09T12:30:48.082Z,20.70
2019-01-09T12:33:14.135Z,20.70
2019-01-09T12:35:40.127Z,20.69
2019-01-09T12:38:06.111Z,20.69
2019-01-09T12:40:32.148Z,20.69
2019-01-09T12:42:58.109Z,20.68
2019-01-09T12:45:24.155Z,20.67
2019-01-09T12:47:50.172Z,20.69
2019-01-09T12:50:16.157Z,20.68
2019-01-09T12:52:42.164Z,20.68
2019-01-09T12:55:08.186Z,20.67
2019-01-09T12:57:34.167Z,20.68
2019-01-09T13:00:00.175Z,20.67
2019-01-09T13:02:26.202Z,20.66
2019-01-09T13:04:52.185Z,20.66
2019-01-09T13:07:18.152Z,20.68
2019-01-09T13:09:44.208Z,20.67
2019-01-09T13:12:10.194Z,20.67
2019-01-09T13:14:36.185Z,20.66
2019-01-09T13:17:02.244Z,20.65
2019-01-09T13:19:28.198Z,20.67
2019-01-09T13:21:54.170Z,20.66
2019-01-09T13:24:20.215Z,20.66
2019-01-09T13:26:46.201Z,20.65
2019-01-09T13:29:12.217Z,20.66
2019-01-09T13:31:38.203Z,20.65
2019-01-09T13:34:04.185Z,20.65
2019-01-09T13:36:30.208Z,20.65
2019-01-09T13:38:56.200Z,20.65
2019-01-09T13:41:22.194Z,20.66
2019-01-09T13:43:48.227Z,20.64
2019-01-09T13:46:14.194Z,20.64
2019-01-09T13:48:40.159Z,20.64
2019-01-09T13:51:06.180Z,20.63
2019-01-09T13:53:32.168Z,20.63
2019-01-09T13:55:58.128Z,20.63
2019-01-09T13:58:24.160Z,20.64
2019-01-09T14:00:50.161Z,20.63
2019-01-09T14:03:16.135Z,20.64
2019-01-09T14:05:42.172Z,20.63
2019-01-09T14:08:08.152Z,20.62
2019-01-09T14:10:34.134Z,20.63
2019-01-09T14:13:00.154Z,20.63
2019-01-09T14:15:26.192Z,20.63
2019-01-09T14:17:52.110Z,20.63
2019-01-09T14:20:18.131Z,20.62
2019-01-09T14:22:44.115Z,20.63
2019-01-09T14:25:10.154Z,20.62
2019-01-09T14:27:36.180Z,20.62
2019-01-09T14:30:02.179Z,20.62
2019-01-09T14:32:28.170Z,20.62
2019-01-09T14:34:54.206Z,20.61
2019-01-09T14:37:20.179Z,20.62
2019-01-09T14:39:48.131Z,20.61
2019-01-09T14:42:12.177Z,20.61
2019-01-09T14:44:38.191Z,20.61
2019-01-09T14:47:04.219Z,20.61
2019-01-09T14:49:30.432Z,20.60
2019-01-09T14:51:56.423Z,20.61
2019-01-09T14:54:22.398Z,20.61
2019-01-09T14:56:48.471Z,20.61
2019-01-09T14:59:14.456Z,20.60
2019-01-09T15:01:40.433Z,20.60
2019-01-09T15:04:06.496Z,20.60
2019-01-09T15:06:32.469Z,20.60
2019-01-09T15:08:58.439Z,20.60
2019-01-09T15:11:24.479Z,20.59
2019-01-09T15:13:50.470Z,20.59
2019-01-09T15:16:16.460Z,20.60
2019-01-09T15:18:42.510Z,20.58
2019-01-09T15:21:08.472Z,20.58
2019-01-09T15:23:34.486Z,20.58
2019-01-09T15:26:00.476Z,20.58
2019-01-09T15:28:26.496Z,20.58
2019-01-09T15:30:52.602Z,20.57
2019-01-09T15:33:18.587Z,20.56
2019-01-09T15:35:44.697Z,20.57
2019-01-09T15:38:10.601Z,20.56
2019-01-09T15:40:36.593Z,20.55
2019-01-09T15:43:02.635Z,20.55
2019-01-09T15:45:28.612Z,20.55
2019-01-09T15:47:54.595Z,20.55
2019-01-09T15:50:20.604Z,20.54
2019-01-09T15:52:46.587Z,20.54
2019-01-09T15:55:12.579Z,20.54
2019-01-09T15:57:38.620Z,20.53
2019-01-09T16:00:04.632Z,20.53
2019-01-09T16:02:30.610Z,20.53
2019-01-09T16:04:56.668Z,20.53
2019-01-09T16:07:22.663Z,20.52
2019-01-09T16:09:48.651Z,20.54
2019-01-09T16:12:14.685Z,20.55
2019-01-09T16:14:40.684Z,20.53
2019-01-09T16:17:06.671Z,20.53
2019-01-09T16:19:32.729Z,20.53
2019-01-09T16:21:58.692Z,20.52
2019-01-09T16:24:24.678Z,20.52
2019-01-09T16:26:50.711Z,20.52
2019-01-09T16:29:16.771Z,20.51
2019-01-09T16:31:42.708Z,20.51
2019-01-09T16:34:08.737Z,20.51
2019-01-09T16:36:34.748Z,20.51
2019-01-09T16:39:00.766Z,20.50
2019-01-09T16:41:26.909Z,20.49
2019-01-09T16:43:52.877Z,20.49
2019-01-09T16:46:18.904Z,20.48
2019-01-09T16:48:45.007Z,20.48
2019-01-09T16:51:11.083Z,20.49
2019-01-09T16:53:37.091Z,20.50
2019-01-09T16:56:03.151Z,20.51
2019-01-09T16:58:29.220Z,20.51
2019-01-09T17:00:55.221Z,20.52
2019-01-09T17:03:21.248Z,20.53
2019-01-09T17:05:47.373Z,20.53
2019-01-09T17:08:13.349Z,20.52
2019-01-09T17:10:41.871Z,20.52
2019-01-09T17:13:07.867Z,20.51
2019-01-09T17:15:33.919Z,20.52
2019-01-09T17:17:59.899Z,20.52
2019-01-09T17:20:25.879Z,20.51
2019-01-09T17:22:51.937Z,20.52
2019-01-09T17:25:17.903Z,20.52
2019-01-09T17:27:43.915Z,20.51
2019-01-09T17:30:09.951Z,20.51
2019-01-09T17:32:35.921Z,20.51
2019-01-09T17:35:02.721Z,20.51
2019-01-09T17:37:29.774Z,20.51
2019-01-09T17:39:56.616Z,20.50
2019-01-09T17:42:23.211Z,20.52
2019-01-09T17:44:49.809Z,20.53
2019-01-09T17:47:16.537Z,20.55
2019-01-09T17:49:43.171Z,20.57
2019-01-09T17:52:10.650Z,20.59
2019-01-09T17:54:37.167Z,20.58
2019-01-09T17:57:03.294Z,20.61
2019-01-09T17:59:29.930Z,20.62
2019-01-09T18:01:56.569Z,20.62
2019-01-09T18:04:26.743Z,20.62
2019-01-09T18:06:54.266Z,20.64
2019-01-09T18:09:21.096Z,20.62
2019-01-09T18:11:47.133Z,20.63
2019-01-09T18:14:13.132Z,20.63
2019-01-09T18:16:39.116Z,20.65
2019-01-09T18:19:05.145Z,20.65
2019-01-09T18:21:31.171Z,20.66
2019-01-09T18:23:57.170Z,20.65
2019-01-09T18:26:23.238Z,20.67
2019-01-09T18:28:49.294Z,20.66
2019-01-09T18:31:15.295Z,20.66
2019-01-09T18:33:41.348Z,20.67
2019-01-09T18:36:07.320Z,20.67
2019-01-09T18:38:33.344Z,20.68
2019-01-09T18:41:00.265Z,20.69
2019-01-09T18:43:25.387Z,20.68
2019-01-09T18:45:51.392Z,20.66
2019-01-09T18:48:17.407Z,20.69
2019-01-09T18:50:43.405Z,20.69
2019-01-09T18:53:09.395Z,20.69
2019-01-09T18:55:35.418Z,20.70
2019-01-09T18:58:01.726Z,20.70
2019-01-09T19:00:27.713Z,20.71
2019-01-09T19:02:54.016Z,20.72
2019-01-09T19:05:19.985Z,20.75
2019-01-09T19:07:45.976Z,20.77
2019-01-09T19:10:12.010Z,20.77
2019-01-09T19:12:37.983Z,20.78
2019-01-09T19:15:03.975Z,20.79
2019-01-09T19:17:30.587Z,20.77
2019-01-09T19:19:56.564Z,20.78
2019-01-09T19:22:22.568Z,20.79
2019-01-09T19:24:48.594Z,20.78
2019-01-09T19:27:14.578Z,20.78
2019-01-09T19:29:40.566Z,20.78
2019-01-09T19:32:06.675Z,20.78
2019-01-09T19:34:32.681Z,20.78
2019-01-09T19:36:58.667Z,20.76
2019-01-09T19:39:25.094Z,20.78
2019-01-09T19:41:51.075Z,20.78
2019-01-09T19:44:19.031Z,20.76
2019-01-09T19:46:43.149Z,20.76
2019-01-09T19:49:09.158Z,20.75
2019-01-09T19:51:36.250Z,20.75
2019-01-09T19:54:02.296Z,20.73
2019-01-09T19:56:28.366Z,20.74
2019-01-09T19:58:54.331Z,20.74
2019-01-09T20:01:20.339Z,20.73
2019-01-09T20:03:46.322Z,20.72
2019-01-09T20:06:12.302Z,20.72
2019-01-09T20:08:38.470Z,20.72
2019-01-09T20:11:04.546Z,20.72
2019-01-09T20:13:30.604Z,20.71
2019-01-09T20:15:56.532Z,20.71
2019-01-09T20:18:22.511Z,20.70
2019-01-09T20:20:48.638Z,20.71
2019-01-09T20:23:14.706Z,20.72
2019-01-09T20:25:40.697Z,20.71
2019-01-09T20:28:06.691Z,20.73
2019-01-09T20:30:32.748Z,20.74
2019-01-09T20:32:58.748Z,20.75
2019-01-09T20:35:24.803Z,20.75
2019-01-09T20:37:51.323Z,20.75
2019-01-09T20:40:17.292Z,20.77
2019-01-09T20:42:43.270Z,20.77
2019-01-09T20:45:09.384Z,20.78
2019-01-09T20:47:35.427Z,20.81
2019-01-09T20:50:01.380Z,20.81
2019-01-09T20:52:28.319Z,20.81
2019-01-09T20:54:54.906Z,20.81
2019-01-09T20:57:21.845Z,20.81
2019-01-09T20:59:48.176Z,20.81
2019-01-09T21:02:14.686Z,20.81
2019-01-09T21:04:42.036Z,20.81
2019-01-09T21:07:08.812Z,20.80
2019-01-09T21:09:35.289Z,20.82
2019-01-09T21:12:01.246Z,20.83
2019-01-09T21:14:27.242Z,20.83
2019-01-09T21:16:53.260Z,20.83
2019-01-09T21:19:19.256Z,20.83
2019-01-09T21:21:45.337Z,20.86
2019-01-09T21:24:11.317Z,20.85
2019-01-09T21:26:37.384Z,20.85
2019-01-09T21:29:03.636Z,20.84
2019-01-09T21:31:29.622Z,20.83
2019-01-09T21:33:55.643Z,20.84
2019-01-09T21:36:21.621Z,20.85
2019-01-09T21:38:47.594Z,20.85
2019-01-09T21:41:13.614Z,20.84
2019-01-09T21:43:39.589Z,20.85
2019-01-09T21:46:05.603Z,20.84
2019-01-09T21:48:31.593Z,20.85
2019-01-09T21:50:57.589Z,20.86
2019-01-09T21:53:23.618Z,20.86
2019-01-09T21:55:49.586Z,20.86
2019-01-09T21:58:15.638Z,20.87
2019-01-09T22:00:41.593Z,20.87
2019-01-09T22:03:07.579Z,20.87
2019-01-09T22:05:33.593Z,20.86
2019-01-09T22:07:59.561Z,20.88
2019-01-09T22:10:25.573Z,20.87
2019-01-09T22:12:51.565Z,20.87
2019-01-09T22:15:17.531Z,20.88
2019-01-09T22:17:43.543Z,20.88
2019-01-09T22:20:09.583Z,20.88
2019-01-09T22:22:35.582Z,20.88
2019-01-09T22:25:01.565Z,20.88
2019-01-09T22:27:27.612Z,20.88
2019-01-09T22:29:53.600Z,20.89
2019-01-09T22:32:19.588Z,20.89
2019-01-09T22:34:45.618Z,20.90
2019-01-09T22:37:11.603Z,20.91
2019-01-09T22:39:37.579Z,20.89
2019-01-09T22:42:11.542Z,20.88
2019-01-09T22:44:29.566Z,20.89
2019-01-09T22:46:55.553Z,20.88
2019-01-09T22:49:21.580Z,20.88
2019-01-09T22:51:47.561Z,20.87
2019-01-09T22:54:13.528Z,20.88
2019-01-09T22:56:39.543Z,20.89
2019-01-09T22:59:05.545Z,20.88
2019-01-09T23:01:31.520Z,20.88
2019-01-09T23:03:57.767Z,20.86
2019-01-09T23:06:23.791Z,20.87
2019-01-09T23:08:49.755Z,20.87
2019-01-09T23:11:15.789Z,20.87
2019-01-09T23:13:41.769Z,20.87
2019-01-09T23:16:07.806Z,20.87
2019-01-09T23:18:33.841Z,20.87
2019-01-09T23:20:59.807Z,20.86
2019-01-09T23:23:25.811Z,20.86
2019-01-09T23:25:51.843Z,20.86
2019-01-09T23:28:17.827Z,20.86
2019-01-09T23:30:43.813Z,20.86
2019-01-09T23:33:09.815Z,20.85
2019-01-09T23:35:35.788Z,20.86
2019-01-09T23:38:01.764Z,20.85
2019-01-09T23:40:27.808Z,20.85
2019-01-09T23:42:53.779Z,20.85
2019-01-09T23:45:19.794Z,20.85
2019-01-09T23:47:45.785Z,20.86
2019-01-09T23:50:11.776Z,20.85
2019-01-09T23:52:37.780Z,20.85
2019-01-09T23:55:03.762Z,20.86
2019-01-09T23:57:29.768Z,20.85
2019-01-09T23:59:55.790Z,20.85
